sensor_id;sensor_type;location;lat;lon;timestamp;P1;durP1;ratioP1;P2;durP2;ratioP2
78931;SDS011;68331;53.362;55.932;2023-07-13T00:00:44;1.60;;;1.38;;
78931;SDS011;68331;53.362;55.932;2023-07-13T00:03:10;1.65;;;1.45;;
78931;SDS011;68331;53.362;55.932;2023-07-13T00:05:39;3.80;;;1.70;;
78931;SDS011;68331;53.362;55.932;2023-07-13T00:08:07;4.13;;;1.77;;
78931;SDS011;68331;53.362;55.932;2023-07-13T00:10:38;1.98;;;1.48;;
78931;SDS011;68331;53.362;55.932;2023-07-13T00:13:05;3.13;;;1.50;;
78931;SDS011;68331;53.362;55.932;2023-07-13T00:15:31;3.58;;;1.42;;
78931;SDS011;68331;53.362;55.932;2023-07-13T00:17:57;3.08;;;1.80;;
78931;SDS011;68331;53.362;55.932;2023-07-13T00:20:24;1.70;;;1.42;;
78931;SDS011;68331;53.362;55.932;2023-07-13T00:22:53;3.65;;;1.73;;
78931;SDS011;68331;53.362;55.932;2023-07-13T00:25:20;1.83;;;1.60;;
78931;SDS011;68331;53.362;55.932;2023-07-13T00:30:16;4.47;;;1.90;;
78931;SDS011;68331;53.362;55.932;2023-07-13T00:32:43;2.55;;;1.60;;
78931;SDS011;68331;53.362;55.932;2023-07-13T00:35:09;2.65;;;1.40;;
78931;SDS011;68331;53.362;55.932;2023-07-13T00:37:35;2.20;;;1.35;;
78931;SDS011;68331;53.362;55.932;2023-07-13T00:40:04;1.75;;;1.65;;
78931;SDS011;68331;53.362;55.932;2023-07-13T00:42:31;3.13;;;1.60;;
78931;SDS011;68331;53.362;55.932;2023-07-13T00:47:41;5.50;;;1.63;;
78931;SDS011;68331;53.362;55.932;2023-07-13T00:50:14;3.17;;;2.33;;
78931;SDS011;68331;53.362;55.932;2023-07-13T00:52:43;2.58;;;1.40;;
78931;SDS011;68331;53.362;55.932;2023-07-13T00:55:12;3.78;;;1.67;;
78931;SDS011;68331;53.362;55.932;2023-07-13T00:57:39;3.30;;;1.50;;
78931;SDS011;68331;53.362;55.932;2023-07-13T01:00:07;3.20;;;1.50;;
78931;SDS011;68331;53.362;55.932;2023-07-13T01:02:35;3.28;;;1.92;;
78931;SDS011;68331;53.362;55.932;2023-07-13T01:05:13;3.03;;;2.15;;
78931;SDS011;68331;53.362;55.932;2023-07-13T01:07:43;1.65;;;1.52;;
78931;SDS011;68331;53.362;55.932;2023-07-13T01:10:10;2.92;;;1.48;;
78931;SDS011;68331;53.362;55.932;2023-07-13T01:12:38;4.88;;;1.73;;
78931;SDS011;68331;53.362;55.932;2023-07-13T01:15:04;4.82;;;2.13;;
78931;SDS011;68331;53.362;55.932;2023-07-13T01:17:33;1.42;;;1.33;;
78931;SDS011;68331;53.362;55.932;2023-07-13T01:19:59;2.70;;;1.77;;
78931;SDS011;68331;53.362;55.932;2023-07-13T01:22:26;3.67;;;1.60;;
78931;SDS011;68331;53.362;55.932;2023-07-13T01:24:53;6.20;;;1.45;;
78931;SDS011;68331;53.362;55.932;2023-07-13T01:27:21;1.60;;;1.40;;
78931;SDS011;68331;53.362;55.932;2023-07-13T01:29:51;5.88;;;1.42;;
78931;SDS011;68331;53.362;55.932;2023-07-13T01:32:19;2.45;;;1.73;;
78931;SDS011;68331;53.362;55.932;2023-07-13T01:34:50;1.92;;;1.50;;
78931;SDS011;68331;53.362;55.932;2023-07-13T01:37:20;3.55;;;1.50;;
78931;SDS011;68331;53.362;55.932;2023-07-13T01:39:47;2.22;;;1.35;;
78931;SDS011;68331;53.362;55.932;2023-07-13T01:42:13;3.53;;;1.92;;
78931;SDS011;68331;53.362;55.932;2023-07-13T01:44:40;3.47;;;1.15;;
78931;SDS011;68331;53.362;55.932;2023-07-13T01:47:07;2.58;;;2.38;;
78931;SDS011;68331;53.362;55.932;2023-07-13T01:49:34;4.15;;;1.42;;
78931;SDS011;68331;53.362;55.932;2023-07-13T01:52:00;2.47;;;1.33;;
78931;SDS011;68331;53.362;55.932;2023-07-13T01:54:26;4.70;;;1.65;;
78931;SDS011;68331;53.362;55.932;2023-07-13T01:56:52;2.78;;;1.42;;
78931;SDS011;68331;53.362;55.932;2023-07-13T01:59:18;1.75;;;1.38;;
78931;SDS011;68331;53.362;55.932;2023-07-13T02:01:44;3.83;;;2.00;;
78931;SDS011;68331;53.362;55.932;2023-07-13T02:04:10;3.10;;;1.60;;
78931;SDS011;68331;53.362;55.932;2023-07-13T02:06:36;3.08;;;1.58;;
78931;SDS011;68331;53.362;55.932;2023-07-13T02:09:02;3.17;;;1.70;;
78931;SDS011;68331;53.362;55.932;2023-07-13T02:11:28;3.88;;;1.67;;
78931;SDS011;68331;53.362;55.932;2023-07-13T02:14:00;3.60;;;2.33;;
78931;SDS011;68331;53.362;55.932;2023-07-13T02:16:29;3.92;;;1.40;;
78931;SDS011;68331;53.362;55.932;2023-07-13T02:18:57;2.13;;;1.63;;
78931;SDS011;68331;53.362;55.932;2023-07-13T02:21:23;2.63;;;1.92;;
78931;SDS011;68331;53.362;55.932;2023-07-13T02:23:51;2.60;;;1.60;;
78931;SDS011;68331;53.362;55.932;2023-07-13T02:28:44;3.33;;;2.05;;
78931;SDS011;68331;53.362;55.932;2023-07-13T02:31:13;1.83;;;1.73;;
78931;SDS011;68331;53.362;55.932;2023-07-13T02:33:41;4.60;;;1.77;;
78931;SDS011;68331;53.362;55.932;2023-07-13T02:36:07;3.35;;;1.90;;
78931;SDS011;68331;53.362;55.932;2023-07-13T02:38:34;2.65;;;2.05;;
78931;SDS011;68331;53.362;55.932;2023-07-13T02:41:05;3.65;;;1.88;;
78931;SDS011;68331;53.362;55.932;2023-07-13T02:43:33;4.82;;;1.38;;
78931;SDS011;68331;53.362;55.932;2023-07-13T02:46:03;2.85;;;1.60;;
78931;SDS011;68331;53.362;55.932;2023-07-13T02:48:36;5.30;;;1.70;;
78931;SDS011;68331;53.362;55.932;2023-07-13T02:51:04;4.90;;;1.65;;
78931;SDS011;68331;53.362;55.932;2023-07-13T02:53:31;3.40;;;1.80;;
78931;SDS011;68331;53.362;55.932;2023-07-13T02:55:57;3.40;;;1.90;;
78931;SDS011;68331;53.362;55.932;2023-07-13T02:58:24;4.15;;;2.05;;
78931;SDS011;68331;53.362;55.932;2023-07-13T03:00:51;7.60;;;1.75;;
78931;SDS011;68331;53.362;55.932;2023-07-13T03:03:17;9.77;;;2.70;;
78931;SDS011;68331;53.362;55.932;2023-07-13T03:05:44;3.47;;;1.77;;
78931;SDS011;68331;53.362;55.932;2023-07-13T03:08:18;2.70;;;1.80;;
78931;SDS011;68331;53.362;55.932;2023-07-13T03:10:45;4.63;;;1.45;;
78931;SDS011;68331;53.362;55.932;2023-07-13T03:15:38;10.25;;;2.35;;
78931;SDS011;68331;53.362;55.932;2023-07-13T03:18:04;2.25;;;1.90;;
78931;SDS011;68331;53.362;55.932;2023-07-13T03:20:34;3.47;;;1.70;;
78931;SDS011;68331;53.362;55.932;2023-07-13T03:23:01;4.00;;;1.50;;
78931;SDS011;68331;53.362;55.932;2023-07-13T03:25:29;3.45;;;1.67;;
78931;SDS011;68331;53.362;55.932;2023-07-13T03:27:55;2.42;;;1.50;;
78931;SDS011;68331;53.362;55.932;2023-07-13T03:30:21;3.20;;;1.42;;
78931;SDS011;68331;53.362;55.932;2023-07-13T03:32:47;3.50;;;1.73;;
78931;SDS011;68331;53.362;55.932;2023-07-13T03:35:13;3.65;;;1.10;;
78931;SDS011;68331;53.362;55.932;2023-07-13T03:37:39;1.70;;;1.10;;
78931;SDS011;68331;53.362;55.932;2023-07-13T03:40:12;3.20;;;1.25;;
78931;SDS011;68331;53.362;55.932;2023-07-13T03:42:38;10.98;;;7.28;;
78931;SDS011;68331;53.362;55.932;2023-07-13T03:45:05;2.40;;;1.33;;
78931;SDS011;68331;53.362;55.932;2023-07-13T03:47:32;3.72;;;1.40;;
78931;SDS011;68331;53.362;55.932;2023-07-13T03:50:03;2.25;;;1.33;;
78931;SDS011;68331;53.362;55.932;2023-07-13T03:57:21;2.83;;;1.33;;
78931;SDS011;68331;53.362;55.932;2023-07-13T03:59:48;1.52;;;0.85;;
78931;SDS011;68331;53.362;55.932;2023-07-13T04:02:14;2.63;;;1.67;;
78931;SDS011;68331;53.362;55.932;2023-07-13T04:04:40;26.73;;;2.88;;
78931;SDS011;68331;53.362;55.932;2023-07-13T04:07:06;2.90;;;1.20;;
78931;SDS011;68331;53.362;55.932;2023-07-13T04:09:34;1.27;;;1.10;;
78931;SDS011;68331;53.362;55.932;2023-07-13T04:12:00;4.40;;;1.40;;
78931;SDS011;68331;53.362;55.932;2023-07-13T04:14:27;3.55;;;1.70;;
78931;SDS011;68331;53.362;55.932;2023-07-13T04:16:53;5.20;;;1.50;;
78931;SDS011;68331;53.362;55.932;2023-07-13T04:19:20;3.10;;;1.55;;
78931;SDS011;68331;53.362;55.932;2023-07-13T04:24:12;7.70;;;1.27;;
78931;SDS011;68331;53.362;55.932;2023-07-13T04:26:38;5.25;;;1.42;;
78931;SDS011;68331;53.362;55.932;2023-07-13T04:29:05;9.25;;;1.63;;
78931;SDS011;68331;53.362;55.932;2023-07-13T04:31:32;2.72;;;1.20;;
78931;SDS011;68331;53.362;55.932;2023-07-13T04:33:59;3.22;;;1.50;;
78931;SDS011;68331;53.362;55.932;2023-07-13T04:36:25;3.58;;;1.40;;
78931;SDS011;68331;53.362;55.932;2023-07-13T04:38:54;3.30;;;1.40;;
78931;SDS011;68331;53.362;55.932;2023-07-13T04:41:21;1.60;;;1.10;;
78931;SDS011;68331;53.362;55.932;2023-07-13T04:43:47;5.38;;;1.30;;
78931;SDS011;68331;53.362;55.932;2023-07-13T04:46:15;1.77;;;1.10;;
78931;SDS011;68331;53.362;55.932;2023-07-13T04:48:46;6.45;;;2.03;;
78931;SDS011;68331;53.362;55.932;2023-07-13T05:01:06;2.38;;;1.30;;
78931;SDS011;68331;53.362;55.932;2023-07-13T05:03:33;1.40;;;1.30;;
78931;SDS011;68331;53.362;55.932;2023-07-13T05:06:00;3.83;;;1.42;;
78931;SDS011;68331;53.362;55.932;2023-07-13T05:08:29;2.90;;;1.20;;
78931;SDS011;68331;53.362;55.932;2023-07-13T05:10:55;2.95;;;1.55;;
78931;SDS011;68331;53.362;55.932;2023-07-13T05:13:22;2.75;;;1.23;;
78931;SDS011;68331;53.362;55.932;2023-07-13T05:15:55;1.95;;;1.15;;
78931;SDS011;68331;53.362;55.932;2023-07-13T05:18:27;1.95;;;1.08;;
78931;SDS011;68331;53.362;55.932;2023-07-13T05:20:57;1.65;;;0.95;;
78931;SDS011;68331;53.362;55.932;2023-07-13T05:23:32;3.25;;;1.40;;
78931;SDS011;68331;53.362;55.932;2023-07-13T05:25:59;5.35;;;1.45;;
78931;SDS011;68331;53.362;55.932;2023-07-13T05:28:26;2.90;;;1.25;;
78931;SDS011;68331;53.362;55.932;2023-07-13T05:30:53;2.83;;;1.30;;
78931;SDS011;68331;53.362;55.932;2023-07-13T05:33:20;1.92;;;1.10;;
78931;SDS011;68331;53.362;55.932;2023-07-13T05:35:47;2.78;;;1.35;;
78931;SDS011;68331;53.362;55.932;2023-07-13T05:38:13;2.83;;;1.30;;
78931;SDS011;68331;53.362;55.932;2023-07-13T05:40:39;7.53;;;1.30;;
78931;SDS011;68331;53.362;55.932;2023-07-13T05:43:05;6.68;;;1.67;;
78931;SDS011;68331;53.362;55.932;2023-07-13T05:45:31;4.28;;;0.93;;
78931;SDS011;68331;53.362;55.932;2023-07-13T05:47:57;3.60;;;1.20;;
78931;SDS011;68331;53.362;55.932;2023-07-13T05:50:23;6.28;;;1.25;;
78931;SDS011;68331;53.362;55.932;2023-07-13T05:52:49;1.20;;;1.10;;
78931;SDS011;68331;53.362;55.932;2023-07-13T05:57:42;3.17;;;1.17;;
78931;SDS011;68331;53.362;55.932;2023-07-13T06:00:08;9.32;;;1.65;;
78931;SDS011;68331;53.362;55.932;2023-07-13T06:02:38;3.95;;;1.42;;
78931;SDS011;68331;53.362;55.932;2023-07-13T06:05:04;5.18;;;1.30;;
78931;SDS011;68331;53.362;55.932;2023-07-13T06:07:30;2.03;;;1.33;;
78931;SDS011;68331;53.362;55.932;2023-07-13T06:09:56;2.42;;;1.60;;
78931;SDS011;68331;53.362;55.932;2023-07-13T06:12:25;3.67;;;1.60;;
78931;SDS011;68331;53.362;55.932;2023-07-13T06:14:51;6.65;;;1.40;;
78931;SDS011;68331;53.362;55.932;2023-07-13T06:17:17;2.75;;;1.40;;
78931;SDS011;68331;53.362;55.932;2023-07-13T06:19:44;2.85;;;1.58;;
78931;SDS011;68331;53.362;55.932;2023-07-13T06:22:10;4.28;;;1.55;;
78931;SDS011;68331;53.362;55.932;2023-07-13T06:24:36;3.80;;;1.65;;
78931;SDS011;68331;53.362;55.932;2023-07-13T06:27:02;5.05;;;3.10;;
78931;SDS011;68331;53.362;55.932;2023-07-13T06:29:28;4.45;;;2.47;;
78931;SDS011;68331;53.362;55.932;2023-07-13T06:31:54;3.38;;;1.70;;
78931;SDS011;68331;53.362;55.932;2023-07-13T06:34:20;4.75;;;1.90;;
78931;SDS011;68331;53.362;55.932;2023-07-13T06:36:46;8.55;;;1.80;;
78931;SDS011;68331;53.362;55.932;2023-07-13T06:39:12;5.57;;;1.77;;
78931;SDS011;68331;53.362;55.932;2023-07-13T06:41:38;2.67;;;1.73;;
78931;SDS011;68331;53.362;55.932;2023-07-13T06:44:09;6.07;;;1.60;;
78931;SDS011;68331;53.362;55.932;2023-07-13T06:46:36;5.82;;;1.95;;
78931;SDS011;68331;53.362;55.932;2023-07-13T06:49:02;2.38;;;1.42;;
78931;SDS011;68331;53.362;55.932;2023-07-13T06:51:28;4.25;;;1.95;;
78931;SDS011;68331;53.362;55.932;2023-07-13T06:53:54;3.00;;;1.50;;
78931;SDS011;68331;53.362;55.932;2023-07-13T06:56:22;7.43;;;2.22;;
78931;SDS011;68331;53.362;55.932;2023-07-13T06:58:48;3.83;;;2.40;;
78931;SDS011;68331;53.362;55.932;2023-07-13T07:01:14;8.68;;;3.10;;
78931;SDS011;68331;53.362;55.932;2023-07-13T07:03:40;4.95;;;2.83;;
78931;SDS011;68331;53.362;55.932;2023-07-13T07:06:15;8.10;;;2.10;;
78931;SDS011;68331;53.362;55.932;2023-07-13T07:08:43;2.75;;;2.30;;
78931;SDS011;68331;53.362;55.932;2023-07-13T07:11:16;5.03;;;2.22;;
78931;SDS011;68331;53.362;55.932;2023-07-13T07:13:43;4.40;;;2.65;;
78931;SDS011;68331;53.362;55.932;2023-07-13T07:16:09;2.10;;;1.90;;
78931;SDS011;68331;53.362;55.932;2023-07-13T07:18:36;2.45;;;1.88;;
78931;SDS011;68331;53.362;55.932;2023-07-13T07:21:03;7.65;;;2.42;;
78931;SDS011;68331;53.362;55.932;2023-07-13T07:23:29;3.90;;;2.22;;
78931;SDS011;68331;53.362;55.932;2023-07-13T07:25:54;3.53;;;2.80;;
78931;SDS011;68331;53.362;55.932;2023-07-13T07:28:21;6.90;;;2.20;;
78931;SDS011;68331;53.362;55.932;2023-07-13T07:30:47;2.90;;;1.95;;
78931;SDS011;68331;53.362;55.932;2023-07-13T07:33:14;4.95;;;2.25;;
78931;SDS011;68331;53.362;55.932;2023-07-13T07:35:40;4.28;;;2.60;;
78931;SDS011;68331;53.362;55.932;2023-07-13T07:38:06;5.75;;;2.50;;
78931;SDS011;68331;53.362;55.932;2023-07-13T07:40:38;3.63;;;2.70;;
78931;SDS011;68331;53.362;55.932;2023-07-13T07:43:09;2.58;;;1.85;;
78931;SDS011;68331;53.362;55.932;2023-07-13T07:45:36;3.03;;;2.00;;
78931;SDS011;68331;53.362;55.932;2023-07-13T07:48:03;4.82;;;2.10;;
78931;SDS011;68331;53.362;55.932;2023-07-13T07:50:30;5.00;;;1.75;;
78931;SDS011;68331;53.362;55.932;2023-07-13T07:52:57;5.53;;;2.00;;
78931;SDS011;68331;53.362;55.932;2023-07-13T07:55:24;2.90;;;1.80;;
78931;SDS011;68331;53.362;55.932;2023-07-13T07:57:54;3.53;;;1.85;;
78931;SDS011;68331;53.362;55.932;2023-07-13T08:00:22;5.13;;;2.60;;
78931;SDS011;68331;53.362;55.932;2023-07-13T08:02:49;5.35;;;1.90;;
78931;SDS011;68331;53.362;55.932;2023-07-13T08:05:15;6.97;;;2.83;;
78931;SDS011;68331;53.362;55.932;2023-07-13T08:07:41;3.13;;;1.83;;
78931;SDS011;68331;53.362;55.932;2023-07-13T08:10:07;6.25;;;1.98;;
78931;SDS011;68331;53.362;55.932;2023-07-13T08:12:35;2.67;;;1.35;;
78931;SDS011;68331;53.362;55.932;2023-07-13T08:15:02;6.55;;;1.60;;
78931;SDS011;68331;53.362;55.932;2023-07-13T08:17:33;2.58;;;1.30;;
78931;SDS011;68331;53.362;55.932;2023-07-13T08:19:58;7.07;;;1.80;;
78931;SDS011;68331;53.362;55.932;2023-07-13T08:22:24;6.75;;;2.00;;
78931;SDS011;68331;53.362;55.932;2023-07-13T08:24:51;4.57;;;1.88;;
78931;SDS011;68331;53.362;55.932;2023-07-13T08:27:22;4.35;;;1.50;;
78931;SDS011;68331;53.362;55.932;2023-07-13T08:29:49;4.05;;;1.83;;
78931;SDS011;68331;53.362;55.932;2023-07-13T08:32:16;4.22;;;2.40;;
78931;SDS011;68331;53.362;55.932;2023-07-13T08:34:44;4.53;;;2.15;;
78931;SDS011;68331;53.362;55.932;2023-07-13T08:37:10;3.90;;;1.58;;
78931;SDS011;68331;53.362;55.932;2023-07-13T08:39:36;4.00;;;2.10;;
78931;SDS011;68331;53.362;55.932;2023-07-13T08:42:07;2.45;;;1.70;;
78931;SDS011;68331;53.362;55.932;2023-07-13T08:45:07;3.35;;;1.80;;
78931;SDS011;68331;53.362;55.932;2023-07-13T08:47:53;3.72;;;2.03;;
78931;SDS011;68331;53.362;55.932;2023-07-13T08:50:23;12.57;;;2.70;;
78931;SDS011;68331;53.362;55.932;2023-07-13T08:52:54;3.63;;;1.92;;
78931;SDS011;68331;53.362;55.932;2023-07-13T08:55:24;2.70;;;1.63;;
78931;SDS011;68331;53.362;55.932;2023-07-13T08:58:00;3.00;;;1.60;;
78931;SDS011;68331;53.362;55.932;2023-07-13T09:00:46;2.65;;;1.73;;
78931;SDS011;68331;53.362;55.932;2023-07-13T09:03:24;4.22;;;2.00;;
78931;SDS011;68331;53.362;55.932;2023-07-13T09:05:57;4.15;;;1.67;;
78931;SDS011;68331;53.362;55.932;2023-07-13T09:08:43;4.70;;;1.90;;
78931;SDS011;68331;53.362;55.932;2023-07-13T09:11:42;5.10;;;1.80;;
78931;SDS011;68331;53.362;55.932;2023-07-13T09:17:05;4.85;;;1.85;;
78931;SDS011;68331;53.362;55.932;2023-07-13T09:19:36;5.10;;;1.98;;
78931;SDS011;68331;53.362;55.932;2023-07-13T09:22:03;2.78;;;1.75;;
78931;SDS011;68331;53.362;55.932;2023-07-13T09:24:49;5.22;;;2.05;;
78931;SDS011;68331;53.362;55.932;2023-07-13T09:27:21;2.70;;;2.28;;
78931;SDS011;68331;53.362;55.932;2023-07-13T09:30:02;2.47;;;2.08;;
78931;SDS011;68331;53.362;55.932;2023-07-13T09:32:33;3.78;;;2.28;;
78931;SDS011;68331;53.362;55.932;2023-07-13T09:34:59;3.22;;;2.10;;
78931;SDS011;68331;53.362;55.932;2023-07-13T09:37:28;4.28;;;2.00;;
78931;SDS011;68331;53.362;55.932;2023-07-13T09:39:58;3.40;;;2.17;;
78931;SDS011;68331;53.362;55.932;2023-07-13T09:42:30;5.00;;;2.03;;
78931;SDS011;68331;53.362;55.932;2023-07-13T09:44:59;4.97;;;2.00;;
78931;SDS011;68331;53.362;55.932;2023-07-13T09:47:32;4.82;;;2.25;;
78931;SDS011;68331;53.362;55.932;2023-07-13T09:50:09;5.85;;;2.38;;
78931;SDS011;68331;53.362;55.932;2023-07-13T09:52:41;5.22;;;2.20;;
78931;SDS011;68331;53.362;55.932;2023-07-13T09:55:43;4.75;;;2.33;;
78931;SDS011;68331;53.362;55.932;2023-07-13T09:58:12;5.13;;;2.70;;
78931;SDS011;68331;53.362;55.932;2023-07-13T10:00:40;5.70;;;2.88;;
78931;SDS011;68331;53.362;55.932;2023-07-13T10:05:46;4.45;;;2.08;;
78931;SDS011;68331;53.362;55.932;2023-07-13T10:08:25;3.58;;;2.17;;
78931;SDS011;68331;53.362;55.932;2023-07-13T10:11:00;3.83;;;2.90;;
78931;SDS011;68331;53.362;55.932;2023-07-13T10:13:35;3.60;;;2.75;;
78931;SDS011;68331;53.362;55.932;2023-07-13T10:16:06;6.35;;;2.60;;
78931;SDS011;68331;53.362;55.932;2023-07-13T10:21:18;2.60;;;2.10;;
78931;SDS011;68331;53.362;55.932;2023-07-13T10:23:49;3.53;;;2.30;;
78931;SDS011;68331;53.362;55.932;2023-07-13T10:26:21;2.83;;;2.20;;
78931;SDS011;68331;53.362;55.932;2023-07-13T10:28:52;4.80;;;2.25;;
78931;SDS011;68331;53.362;55.932;2023-07-13T10:31:22;4.53;;;2.20;;
78931;SDS011;68331;53.362;55.932;2023-07-13T10:33:49;2.60;;;2.30;;
78931;SDS011;68331;53.362;55.932;2023-07-13T10:36:33;6.78;;;2.75;;
78931;SDS011;68331;53.362;55.932;2023-07-13T10:39:05;2.45;;;2.25;;
78931;SDS011;68331;53.362;55.932;2023-07-13T10:41:33;2.70;;;2.20;;
78931;SDS011;68331;53.362;55.932;2023-07-13T10:44:04;3.60;;;2.38;;
78931;SDS011;68331;53.362;55.932;2023-07-13T10:46:41;3.00;;;2.50;;
78931;SDS011;68331;53.362;55.932;2023-07-13T10:49:09;4.28;;;2.70;;
78931;SDS011;68331;53.362;55.932;2023-07-13T10:51:37;8.65;;;2.60;;
78931;SDS011;68331;53.362;55.932;2023-07-13T10:56:38;3.47;;;1.90;;
78931;SDS011;68331;53.362;55.932;2023-07-13T11:01:46;5.32;;;2.95;;
78931;SDS011;68331;53.362;55.932;2023-07-13T11:04:18;4.45;;;3.13;;
78931;SDS011;68331;53.362;55.932;2023-07-13T11:06:47;3.90;;;2.92;;
78931;SDS011;68331;53.362;55.932;2023-07-13T11:09:32;2.88;;;2.28;;
78931;SDS011;68331;53.362;55.932;2023-07-13T11:12:07;3.65;;;1.90;;
78931;SDS011;68331;53.362;55.932;2023-07-13T11:14:42;6.47;;;4.10;;
78931;SDS011;68331;53.362;55.932;2023-07-13T11:17:36;3.33;;;2.60;;
78931;SDS011;68331;53.362;55.932;2023-07-13T11:22:45;2.65;;;2.45;;
78931;SDS011;68331;53.362;55.932;2023-07-13T11:25:35;2.97;;;2.40;;
78931;SDS011;68331;53.362;55.932;2023-07-13T11:28:11;2.83;;;2.40;;
78931;SDS011;68331;53.362;55.932;2023-07-13T11:33:28;4.18;;;2.05;;
78931;SDS011;68331;53.362;55.932;2023-07-13T11:36:05;3.60;;;2.55;;
78931;SDS011;68331;53.362;55.932;2023-07-13T11:41:59;2.60;;;2.40;;
78931;SDS011;68331;53.362;55.932;2023-07-13T11:44:29;5.97;;;2.90;;
78931;SDS011;68331;53.362;55.932;2023-07-13T11:46:57;4.80;;;2.58;;
78931;SDS011;68331;53.362;55.932;2023-07-13T11:49:30;6.28;;;3.00;;
78931;SDS011;68331;53.362;55.932;2023-07-13T11:51:57;3.63;;;3.33;;
78931;SDS011;68331;53.362;55.932;2023-07-13T11:54:32;8.20;;;3.42;;
78931;SDS011;68331;53.362;55.932;2023-07-13T11:57:06;7.57;;;3.47;;
78931;SDS011;68331;53.362;55.932;2023-07-13T11:59:44;5.40;;;2.92;;
78931;SDS011;68331;53.362;55.932;2023-07-13T12:02:15;2.50;;;2.30;;
78931;SDS011;68331;53.362;55.932;2023-07-13T12:04:49;2.97;;;2.60;;
78931;SDS011;68331;53.362;55.932;2023-07-13T12:07:18;4.90;;;3.28;;
78931;SDS011;68331;53.362;55.932;2023-07-13T12:09:44;6.65;;;4.18;;
78931;SDS011;68331;53.362;55.932;2023-07-13T12:12:17;5.78;;;4.13;;
78931;SDS011;68331;53.362;55.932;2023-07-13T12:14:45;5.10;;;4.07;;
78931;SDS011;68331;53.362;55.932;2023-07-13T12:17:23;8.77;;;3.70;;
78931;SDS011;68331;53.362;55.932;2023-07-13T12:19:51;5.10;;;3.85;;
78931;SDS011;68331;53.362;55.932;2023-07-13T12:22:19;7.18;;;5.38;;
78931;SDS011;68331;53.362;55.932;2023-07-13T12:24:46;8.15;;;4.10;;
78931;SDS011;68331;53.362;55.932;2023-07-13T12:27:21;5.93;;;4.07;;
78931;SDS011;68331;53.362;55.932;2023-07-13T12:30:03;9.15;;;4.00;;
78931;SDS011;68331;53.362;55.932;2023-07-13T12:32:32;4.82;;;4.10;;
78931;SDS011;68331;53.362;55.932;2023-07-13T12:35:15;6.65;;;4.35;;
78931;SDS011;68331;53.362;55.932;2023-07-13T12:37:45;8.38;;;4.18;;
78931;SDS011;68331;53.362;55.932;2023-07-13T12:40:15;7.15;;;4.07;;
78931;SDS011;68331;53.362;55.932;2023-07-13T12:42:46;8.05;;;4.93;;
78931;SDS011;68331;53.362;55.932;2023-07-13T12:47:48;8.10;;;5.10;;
78931;SDS011;68331;53.362;55.932;2023-07-13T12:50:17;6.30;;;4.70;;
78931;SDS011;68331;53.362;55.932;2023-07-13T12:52:49;16.27;;;6.30;;
78931;SDS011;68331;53.362;55.932;2023-07-13T12:55:17;9.88;;;7.07;;
78931;SDS011;68331;53.362;55.932;2023-07-13T12:57:52;9.80;;;6.65;;
78931;SDS011;68331;53.362;55.932;2023-07-13T13:00:22;9.27;;;6.10;;
78931;SDS011;68331;53.362;55.932;2023-07-13T13:03:00;8.02;;;5.75;;
78931;SDS011;68331;53.362;55.932;2023-07-13T13:05:31;4.45;;;2.88;;
78931;SDS011;68331;53.362;55.932;2023-07-13T13:07:59;2.78;;;2.53;;
78931;SDS011;68331;53.362;55.932;2023-07-13T13:10:25;9.68;;;4.63;;
78931;SDS011;68331;53.362;55.932;2023-07-13T13:12:52;7.90;;;4.82;;
78931;SDS011;68331;53.362;55.932;2023-07-13T13:15:18;5.40;;;4.22;;
78931;SDS011;68331;53.362;55.932;2023-07-13T13:17:46;6.53;;;3.00;;
78931;SDS011;68331;53.362;55.932;2023-07-13T13:20:17;6.10;;;3.58;;
78931;SDS011;68331;53.362;55.932;2023-07-13T13:22:45;4.85;;;4.05;;
78931;SDS011;68331;53.362;55.932;2023-07-13T13:25:11;6.68;;;4.50;;
78931;SDS011;68331;53.362;55.932;2023-07-13T13:27:41;4.20;;;3.30;;
78931;SDS011;68331;53.362;55.932;2023-07-13T13:30:12;6.10;;;3.20;;
78931;SDS011;68331;53.362;55.932;2023-07-13T13:32:41;4.80;;;3.30;;
78931;SDS011;68331;53.362;55.932;2023-07-13T13:35:14;8.13;;;3.67;;
78931;SDS011;68331;53.362;55.932;2023-07-13T13:37:40;4.30;;;3.63;;
78931;SDS011;68331;53.362;55.932;2023-07-13T13:42:41;6.20;;;4.35;;
78931;SDS011;68331;53.362;55.932;2023-07-13T13:45:09;4.82;;;3.92;;
78931;SDS011;68331;53.362;55.932;2023-07-13T13:47:35;5.50;;;3.20;;
78931;SDS011;68331;53.362;55.932;2023-07-13T13:50:12;4.93;;;3.65;;
78931;SDS011;68331;53.362;55.932;2023-07-13T13:52:41;5.75;;;4.10;;
78931;SDS011;68331;53.362;55.932;2023-07-13T13:55:15;5.32;;;4.15;;
78931;SDS011;68331;53.362;55.932;2023-07-13T13:57:43;5.78;;;3.90;;
78931;SDS011;68331;53.362;55.932;2023-07-13T14:00:09;8.38;;;3.78;;
78931;SDS011;68331;53.362;55.932;2023-07-13T14:02:40;3.88;;;3.38;;
78931;SDS011;68331;53.362;55.932;2023-07-13T14:05:11;5.00;;;3.67;;
78931;SDS011;68331;53.362;55.932;2023-07-13T14:07:39;6.78;;;4.45;;
78931;SDS011;68331;53.362;55.932;2023-07-13T14:10:10;4.18;;;2.90;;
78931;SDS011;68331;53.362;55.932;2023-07-13T14:12:41;4.43;;;2.53;;
78931;SDS011;68331;53.362;55.932;2023-07-13T14:15:22;3.40;;;2.20;;
78931;SDS011;68331;53.362;55.932;2023-07-13T14:17:49;3.88;;;2.40;;
78931;SDS011;68331;53.362;55.932;2023-07-13T14:20:18;4.45;;;2.28;;
78931;SDS011;68331;53.362;55.932;2023-07-13T14:22:45;17.65;;;3.45;;
78931;SDS011;68331;53.362;55.932;2023-07-13T14:25:12;2.08;;;1.52;;
78931;SDS011;68331;53.362;55.932;2023-07-13T14:27:40;2.67;;;1.80;;
78931;SDS011;68331;53.362;55.932;2023-07-13T14:30:14;4.55;;;2.00;;
78931;SDS011;68331;53.362;55.932;2023-07-13T14:32:41;2.30;;;2.10;;
78931;SDS011;68331;53.362;55.932;2023-07-13T14:35:11;2.45;;;1.92;;
78931;SDS011;68331;53.362;55.932;2023-07-13T14:37:42;5.25;;;2.50;;
78931;SDS011;68331;53.362;55.932;2023-07-13T14:42:39;5.72;;;1.92;;
78931;SDS011;68331;53.362;55.932;2023-07-13T14:45:05;2.05;;;1.90;;
78931;SDS011;68331;53.362;55.932;2023-07-13T14:47:37;6.95;;;2.88;;
78931;SDS011;68331;53.362;55.932;2023-07-13T14:50:04;5.18;;;2.40;;
78931;SDS011;68331;53.362;55.932;2023-07-13T14:52:30;2.53;;;2.33;;
78931;SDS011;68331;53.362;55.932;2023-07-13T14:54:56;4.53;;;2.65;;
78931;SDS011;68331;53.362;55.932;2023-07-13T14:57:22;4.85;;;2.72;;
78931;SDS011;68331;53.362;55.932;2023-07-13T14:59:48;3.65;;;2.60;;
78931;SDS011;68331;53.362;55.932;2023-07-13T15:02:25;5.93;;;3.08;;
78931;SDS011;68331;53.362;55.932;2023-07-13T15:04:55;4.80;;;2.47;;
78931;SDS011;68331;53.362;55.932;2023-07-13T15:07:21;4.10;;;2.90;;
78931;SDS011;68331;53.362;55.932;2023-07-13T15:12:16;4.78;;;2.83;;
78931;SDS011;68331;53.362;55.932;2023-07-13T15:14:42;4.00;;;2.72;;
78931;SDS011;68331;53.362;55.932;2023-07-13T15:19:58;4.35;;;3.70;;
78931;SDS011;68331;53.362;55.932;2023-07-13T15:22:25;4.53;;;3.15;;
78931;SDS011;68331;53.362;55.932;2023-07-13T15:24:51;4.32;;;3.35;;
78931;SDS011;68331;53.362;55.932;2023-07-13T15:27:17;4.28;;;3.28;;
78931;SDS011;68331;53.362;55.932;2023-07-13T15:29:43;4.40;;;3.28;;
78931;SDS011;68331;53.362;55.932;2023-07-13T15:34:39;4.20;;;3.03;;
78931;SDS011;68331;53.362;55.932;2023-07-13T15:37:13;4.15;;;2.75;;
78931;SDS011;68331;53.362;55.932;2023-07-13T15:39:41;3.22;;;2.92;;
78931;SDS011;68331;53.362;55.932;2023-07-13T15:42:14;3.42;;;2.80;;
78931;SDS011;68331;53.362;55.932;2023-07-13T15:44:42;3.40;;;3.10;;
78931;SDS011;68331;53.362;55.932;2023-07-13T15:47:11;4.07;;;3.67;;
78931;SDS011;68331;53.362;55.932;2023-07-13T15:49:40;3.85;;;3.42;;
78931;SDS011;68331;53.362;55.932;2023-07-13T15:52:25;4.43;;;4.03;;